createdAt,value
2023-03-06T00:00:19.805Z,5.74
2023-03-06T00:02:47.739Z,5.73
2023-03-06T00:05:15.911Z,5.85
2023-03-06T00:07:43.858Z,5.77
2023-03-06T00:10:15.669Z,5.74
2023-03-06T00:12:44.756Z,5.85
2023-03-06T00:15:13.604Z,5.83
2023-03-06T00:17:41.266Z,5.85
2023-03-06T00:20:11.050Z,6.03
2023-03-06T00:22:39.467Z,6.02
2023-03-06T00:25:08.951Z,5.89
2023-03-06T00:27:36.500Z,5.66
2023-03-06T00:30:07.023Z,6.54
2023-03-06T00:32:34.647Z,6.29
2023-03-06T00:35:02.261Z,6.14
2023-03-06T00:37:29.849Z,5.78
2023-03-06T00:39:57.387Z,5.46
2023-03-06T00:42:25.095Z,5.21
2023-03-06T00:44:52.793Z,4.81
2023-03-06T00:47:21.842Z,4.63
2023-03-06T00:49:50.274Z,4.64
2023-03-06T00:52:17.864Z,4.61
2023-03-06T00:54:45.407Z,4.53
2023-03-06T00:57:13.062Z,4.42
2023-03-06T00:59:40.647Z,4.51
2023-03-06T01:02:08.267Z,4.44
2023-03-06T01:04:37.272Z,4.53
2023-03-06T01:07:04.995Z,4.32
2023-03-06T01:09:32.685Z,4.23
2023-03-06T01:12:00.517Z,4.27
2023-03-06T01:14:28.126Z,4.37
2023-03-06T01:16:55.759Z,4.55
2023-03-06T01:19:23.465Z,4.62
2023-03-06T01:21:52.441Z,4.69
2023-03-06T01:24:19.997Z,4.77
2023-03-06T01:26:47.539Z,5.03
2023-03-06T01:29:15.127Z,5.13
2023-03-06T01:31:42.890Z,4.93
2023-03-06T01:34:10.572Z,4.94
2023-03-06T01:36:38.162Z,4.86
2023-03-06T01:39:07.175Z,4.90
2023-03-06T01:41:35.114Z,4.91
2023-03-06T01:44:03.101Z,4.75
2023-03-06T01:46:35.766Z,5.08
2023-03-06T01:49:08.794Z,5.84
2023-03-06T01:51:40.743Z,6.16
2023-03-06T01:54:14.558Z,6.17
2023-03-06T01:56:47.239Z,6.03
2023-03-06T01:59:16.228Z,5.87
2023-03-06T02:01:44.952Z,5.81
2023-03-06T02:04:13.813Z,5.80
2023-03-06T02:06:41.943Z,5.51
2023-03-06T02:09:12.798Z,5.29
2023-03-06T02:11:40.875Z,5.47
2023-03-06T02:14:08.583Z,5.38
2023-03-06T02:16:36.223Z,5.38
2023-03-06T02:19:16.168Z,5.91
2023-03-06T02:21:44.059Z,6.20
2023-03-06T02:24:30.333Z,5.78
2023-03-06T02:27:00.596Z,5.79
2023-03-06T02:29:30.065Z,5.56
2023-03-06T02:31:57.896Z,5.55
2023-03-06T02:34:54.427Z,5.57
2023-03-06T02:37:24.000Z,5.64
2023-03-06T02:39:59.727Z,5.97
2023-03-06T02:42:29.414Z,5.82
2023-03-06T02:45:02.140Z,5.75
2023-03-06T02:47:29.762Z,5.88
2023-03-06T02:49:57.406Z,6.10
2023-03-06T02:52:25.063Z,6.35
2023-03-06T02:54:52.685Z,6.15
2023-03-06T02:57:20.246Z,5.84
2023-03-06T02:59:49.146Z,5.62
2023-03-06T03:02:16.793Z,5.25
2023-03-06T03:04:44.452Z,5.14
2023-03-06T03:07:12.080Z,4.82
2023-03-06T03:09:39.711Z,4.78
2023-03-06T03:12:08.324Z,4.91
2023-03-06T03:14:36.147Z,5.00
2023-03-06T03:17:05.390Z,5.11
2023-03-06T03:19:33.026Z,5.14
2023-03-06T03:22:00.855Z,5.48
2023-03-06T03:24:28.534Z,5.63
2023-03-06T03:26:56.272Z,5.96
2023-03-06T03:29:24.749Z,5.84
2023-03-06T03:31:52.331Z,5.26
2023-03-06T03:34:21.349Z,5.35
2023-03-06T03:36:49.263Z,5.23
2023-03-06T03:39:16.957Z,5.22
2023-03-06T03:41:44.628Z,5.19
2023-03-06T03:44:12.568Z,5.17
2023-03-06T03:46:40.320Z,5.18
2023-03-06T03:49:08.053Z,5.25
2023-03-06T03:51:37.073Z,5.20
2023-03-06T03:54:06.159Z,5.06
2023-03-06T03:56:35.175Z,5.85
2023-03-06T03:59:03.069Z,6.24
2023-03-06T04:01:30.708Z,6.22
2023-03-06T04:03:59.032Z,6.35
2023-03-06T04:06:26.821Z,6.36
2023-03-06T04:08:56.247Z,6.24
2023-03-06T04:11:23.920Z,6.19
2023-03-06T04:13:51.668Z,5.89
2023-03-06T04:16:19.391Z,6.07
2023-03-06T04:18:47.006Z,6.08
2023-03-06T04:21:14.822Z,5.83
2023-03-06T04:23:42.457Z,5.97
2023-03-06T04:26:11.457Z,5.63
2023-03-06T04:28:39.128Z,5.62
2023-03-06T04:31:06.782Z,5.56
2023-03-06T04:33:34.339Z,5.68
2023-03-06T04:36:01.965Z,5.47
2023-03-06T04:38:29.760Z,5.25
2023-03-06T04:40:57.458Z,5.17
2023-03-06T04:43:26.443Z,4.92
2023-03-06T04:45:54.046Z,5.57
2023-03-06T04:48:21.703Z,5.75
2023-03-06T04:50:49.350Z,5.65
2023-03-06T04:53:17.004Z,5.33
2023-03-06T04:55:44.636Z,5.61
2023-03-06T04:58:13.963Z,5.71
2023-03-06T05:00:43.026Z,5.84
2023-03-06T05:03:12.859Z,5.36
2023-03-06T05:05:40.564Z,5.18
2023-03-06T05:08:10.306Z,5.61
2023-03-06T05:10:37.959Z,5.78
2023-03-06T05:13:05.863Z,5.75
2023-03-06T05:15:33.445Z,5.82
2023-03-06T05:18:03.804Z,5.88
2023-03-06T05:20:31.431Z,5.75
2023-03-06T05:22:59.155Z,5.85
2023-03-06T05:25:26.876Z,5.73
2023-03-06T05:27:54.547Z,5.83
2023-03-06T05:30:22.373Z,5.74
2023-03-06T05:32:50.196Z,5.45
2023-03-06T05:35:21.572Z,5.30
2023-03-06T05:37:50.286Z,5.84
2023-03-06T05:40:18.887Z,5.56
2023-03-06T05:42:46.438Z,5.74
2023-03-06T05:45:14.058Z,5.92
2023-03-06T05:47:41.820Z,6.06
2023-03-06T05:50:11.214Z,5.83
2023-03-06T05:52:40.172Z,5.43
2023-03-06T05:55:12.047Z,4.98
2023-03-06T05:57:39.780Z,5.10
2023-03-06T06:00:10.379Z,5.03
2023-03-06T06:02:38.295Z,5.50
2023-03-06T06:05:07.069Z,5.53
2023-03-06T06:07:34.723Z,5.34
2023-03-06T06:10:04.986Z,5.94
2023-03-06T06:12:33.153Z,5.97
2023-03-06T06:15:00.933Z,5.81
2023-03-06T06:17:28.582Z,5.72
2023-03-06T06:19:56.278Z,5.46
2023-03-06T06:22:25.337Z,5.51
2023-03-06T06:24:53.072Z,6.15
2023-03-06T06:27:21.962Z,6.27
2023-03-06T06:29:50.876Z,6.38
2023-03-06T06:32:18.611Z,6.17
2023-03-06T06:34:46.219Z,6.05
2023-03-06T06:37:13.918Z,6.08
2023-03-06T06:39:41.537Z,5.89
2023-03-06T06:42:28.895Z,5.80
2023-03-06T06:44:58.523Z,6.20
2023-03-06T06:47:26.434Z,6.82
2023-03-06T06:49:55.949Z,6.68
2023-03-06T06:52:24.517Z,6.57
2023-03-06T06:54:52.471Z,6.88
2023-03-06T06:57:20.104Z,7.17
2023-03-06T06:59:47.663Z,7.23
2023-03-06T07:02:16.828Z,7.15
2023-03-06T07:05:00.696Z,6.58
2023-03-06T07:07:30.720Z,6.46
2023-03-06T07:09:58.384Z,6.56
2023-03-06T07:12:26.016Z,6.57
2023-03-06T07:14:53.807Z,6.64
2023-03-06T07:17:22.746Z,6.68
2023-03-06T07:19:50.603Z,6.85
2023-03-06T07:22:18.228Z,6.63
2023-03-06T07:24:45.883Z,6.63
2023-03-06T07:27:13.551Z,6.65
2023-03-06T07:29:43.353Z,5.92
2023-03-06T07:32:11.672Z,5.75
2023-03-06T07:34:40.670Z,5.75
2023-03-06T07:37:08.643Z,5.34
2023-03-06T07:39:36.516Z,5.12
2023-03-06T07:42:05.019Z,5.11
2023-03-06T07:44:36.456Z,5.74
2023-03-06T07:47:04.234Z,5.73
2023-03-06T07:49:31.906Z,6.33
2023-03-06T07:52:01.496Z,6.80
2023-03-06T07:54:29.108Z,7.16
2023-03-06T07:56:56.957Z,6.93
2023-03-06T07:59:24.870Z,6.53
2023-03-06T08:01:54.362Z,6.31
2023-03-06T08:04:22.093Z,5.91
2023-03-06T08:06:49.650Z,6.41
2023-03-06T08:09:18.695Z,5.82
2023-03-06T08:11:46.396Z,6.05
2023-03-06T08:14:14.171Z,6.43
2023-03-06T08:16:42.062Z,6.21
2023-03-06T08:19:09.917Z,6.48
2023-03-06T08:21:37.584Z,7.25
2023-03-06T08:24:06.777Z,7.38
2023-03-06T08:26:36.551Z,6.41
2023-03-06T08:29:04.478Z,6.79
2023-03-06T08:31:35.308Z,7.68
2023-03-06T08:34:06.056Z,7.21
2023-03-06T08:36:34.297Z,7.42
2023-03-06T08:39:02.952Z,6.78
2023-03-06T08:41:31.270Z,7.87
2023-03-06T08:44:00.306Z,7.55
2023-03-06T08:46:30.041Z,7.19
2023-03-06T08:48:58.680Z,7.25
2023-03-06T08:51:27.020Z,8.48
2023-03-06T08:53:55.852Z,8.66
2023-03-06T08:56:26.532Z,8.33
2023-03-06T08:58:56.117Z,9.08
2023-03-06T09:01:27.160Z,9.66
2023-03-06T09:03:56.927Z,10.03
2023-03-06T09:06:27.158Z,9.23
2023-03-06T09:08:55.710Z,11.05
2023-03-06T09:11:26.737Z,9.73
2023-03-06T09:13:54.996Z,11.45
2023-03-06T09:16:25.046Z,12.00
2023-03-06T09:18:52.913Z,11.70
2023-03-06T09:21:21.373Z,12.04
2023-03-06T09:23:49.762Z,11.97
2023-03-06T09:26:17.459Z,11.99
2023-03-06T09:28:45.374Z,12.15
2023-03-06T09:34:17.347Z,11.16
2023-03-06T09:36:56.771Z,10.97
2023-03-06T09:39:26.066Z,10.95
2023-03-06T09:41:55.065Z,10.99
2023-03-06T09:44:25.961Z,11.08
2023-03-06T09:47:18.911Z,10.52
2023-03-06T09:50:06.005Z,10.16
2023-03-06T09:58:05.969Z,9.89
2023-03-06T10:00:40.041Z,10.02
2023-03-06T10:03:22.126Z,10.06
2023-03-06T10:05:54.961Z,10.05
2023-03-06T10:08:30.187Z,10.16
2023-03-06T10:11:00.934Z,11.05
2023-03-06T10:13:38.418Z,10.80
2023-03-06T10:16:22.157Z,11.22
2023-03-06T10:18:50.716Z,12.42
2023-03-06T10:21:42.267Z,12.02
2023-03-06T10:24:23.843Z,12.51
2023-03-06T10:27:00.019Z,12.33
2023-03-06T10:30:01.272Z,11.96
2023-03-06T10:32:46.311Z,13.70
2023-03-06T10:35:21.337Z,13.27
2023-03-06T10:37:48.969Z,13.33
2023-03-06T10:40:20.017Z,13.16
2023-03-06T10:42:47.796Z,13.36
2023-03-06T10:45:17.831Z,12.49
2023-03-06T10:47:45.462Z,13.09
2023-03-06T10:50:25.948Z,13.23
2023-03-06T10:53:02.345Z,12.16
2023-03-06T10:55:31.920Z,12.14
2023-03-06T10:58:18.314Z,12.22
2023-03-06T11:00:47.660Z,12.32
2023-03-06T11:03:21.943Z,12.59
2023-03-06T11:06:01.200Z,11.78
2023-03-06T11:08:30.497Z,12.49
2023-03-06T11:11:00.922Z,12.66
2023-03-06T11:13:31.612Z,11.71
2023-03-06T11:16:07.291Z,11.75
2023-03-06T11:18:37.759Z,11.90
2023-03-06T11:21:25.365Z,11.68
2023-03-06T11:23:57.634Z,11.63
2023-03-06T11:26:37.070Z,11.42
2023-03-06T11:29:50.206Z,11.49
2023-03-06T11:32:24.561Z,11.29
2023-03-06T11:34:59.642Z,11.15
2023-03-06T11:37:43.009Z,10.79
2023-03-06T11:40:20.527Z,10.84
2023-03-06T11:42:57.275Z,11.36
2023-03-06T11:45:30.097Z,11.57
2023-03-06T11:48:20.584Z,11.72
2023-03-06T11:50:50.499Z,11.67
2023-03-06T11:53:22.384Z,11.54
2023-03-06T11:56:02.211Z,11.56
2023-03-06T11:58:56.102Z,13.20
2023-03-06T12:01:30.509Z,13.23
2023-03-06T12:04:25.707Z,13.73
2023-03-06T12:07:07.547Z,14.24
2023-03-06T12:09:46.422Z,14.41
2023-03-06T12:12:31.972Z,14.18
2023-03-06T12:15:18.220Z,12.79
2023-03-06T12:18:11.043Z,13.28
2023-03-06T12:20:58.635Z,13.04
2023-03-06T12:23:48.433Z,10.24
2023-03-06T12:26:33.581Z,9.38
2023-03-06T12:29:19.725Z,9.81
2023-03-06T12:32:05.770Z,10.06
2023-03-06T12:34:49.363Z,10.21
2023-03-06T12:37:27.040Z,12.00
2023-03-06T12:40:18.577Z,13.22
2023-03-06T12:43:09.083Z,12.29
2023-03-06T12:45:38.035Z,13.10
2023-03-06T12:48:14.701Z,10.45
2023-03-06T12:50:43.159Z,11.57
2023-03-06T12:53:26.057Z,9.97
2023-03-06T12:55:57.177Z,12.78
2023-03-06T12:58:47.069Z,12.17
2023-03-06T13:01:48.302Z,11.27
2023-03-06T13:04:35.059Z,10.29
2023-03-06T13:07:22.089Z,9.91
2023-03-06T13:10:13.308Z,9.32
2023-03-06T13:12:54.386Z,10.17
2023-03-06T13:15:38.094Z,10.44
2023-03-06T13:18:56.264Z,9.42
2023-03-06T13:21:43.460Z,9.33
2023-03-06T13:24:17.229Z,9.46
2023-03-06T13:26:53.860Z,9.68
2023-03-06T13:30:01.021Z,9.75
2023-03-06T13:32:32.506Z,9.86
2023-03-06T13:35:00.670Z,10.80
2023-03-06T13:37:47.233Z,10.67
2023-03-06T13:40:32.485Z,11.68
2023-03-06T13:43:18.783Z,13.43
2023-03-06T13:45:48.359Z,11.88
2023-03-06T13:48:43.537Z,11.77
2023-03-06T13:51:24.436Z,12.72
2023-03-06T13:54:20.120Z,12.57
2023-03-06T13:57:23.321Z,13.10
2023-03-06T14:00:34.919Z,13.92
2023-03-06T14:03:41.456Z,13.77
2023-03-06T14:06:42.550Z,13.41
2023-03-06T14:09:24.094Z,13.62
2023-03-06T14:11:56.623Z,14.03
2023-03-06T14:14:34.336Z,13.71
2023-03-06T14:17:05.300Z,12.01
2023-03-06T14:19:37.965Z,12.34
2023-03-06T14:22:13.234Z,11.14
2023-03-06T14:24:51.815Z,10.55
2023-03-06T14:27:19.994Z,10.61
2023-03-06T14:29:47.635Z,9.79
2023-03-06T14:32:22.259Z,9.04
2023-03-06T14:34:50.368Z,9.69
2023-03-06T14:37:23.450Z,9.32
2023-03-06T14:39:52.233Z,8.50
2023-03-06T14:42:21.993Z,9.56
2023-03-06T14:45:00.988Z,8.73
2023-03-06T14:47:32.009Z,8.32
2023-03-06T14:50:20.183Z,9.09
2023-03-06T14:52:48.313Z,9.03
2023-03-06T14:55:19.361Z,9.17
2023-03-06T14:57:51.930Z,10.23
2023-03-06T15:00:24.336Z,10.48
2023-03-06T15:02:55.688Z,11.75
2023-03-06T15:05:28.259Z,13.47
2023-03-06T15:08:01.962Z,13.21
2023-03-06T15:10:31.721Z,13.38
2023-03-06T15:13:09.376Z,13.54
2023-03-06T15:15:37.024Z,13.20
2023-03-06T15:18:27.465Z,12.47
2023-03-06T15:21:07.127Z,12.50
2023-03-06T15:23:37.386Z,13.11
2023-03-06T15:26:23.461Z,13.43
2023-03-06T15:29:09.054Z,13.08
2023-03-06T15:31:39.274Z,14.13
2023-03-06T15:34:20.675Z,13.80
2023-03-06T15:36:50.244Z,14.24
2023-03-06T15:39:30.726Z,13.96
2023-03-06T15:41:59.912Z,13.88
2023-03-06T15:44:31.517Z,13.51
2023-03-06T15:47:08.403Z,14.13
2023-03-06T15:49:39.267Z,13.97
2023-03-06T15:52:07.783Z,14.23
2023-03-06T15:54:36.399Z,14.30
2023-03-06T15:57:07.171Z,13.31
2023-03-06T15:59:43.115Z,14.27
2023-03-06T16:02:15.497Z,13.96
2023-03-06T16:04:45.571Z,14.17
2023-03-06T16:07:13.670Z,13.70
2023-03-06T16:09:42.411Z,14.05
2023-03-06T16:12:17.619Z,13.99
2023-03-06T16:14:45.843Z,12.38
2023-03-06T16:17:14.533Z,11.07
2023-03-06T16:19:42.166Z,12.23
2023-03-06T16:22:11.899Z,12.72
2023-03-06T16:24:39.473Z,12.54
2023-03-06T16:27:07.184Z,12.78
2023-03-06T16:29:35.159Z,12.61
2023-03-06T16:32:03.345Z,12.37
2023-03-06T16:34:30.948Z,12.16
2023-03-06T16:36:58.580Z,12.25
2023-03-06T16:39:27.575Z,12.02
2023-03-06T16:41:55.505Z,12.16
2023-03-06T16:44:23.050Z,12.32
2023-03-06T16:46:50.736Z,12.36
2023-03-06T16:49:20.575Z,12.39
2023-03-06T16:51:48.716Z,12.31
2023-03-06T16:54:16.501Z,11.43
2023-03-06T16:56:45.940Z,10.75
2023-03-06T16:59:13.635Z,9.99
2023-03-06T17:01:42.011Z,9.80
2023-03-06T17:04:09.694Z,10.79
2023-03-06T17:06:38.318Z,11.11
2023-03-06T17:09:05.943Z,10.95
2023-03-06T17:11:35.656Z,11.12
2023-03-06T17:14:04.967Z,11.27
2023-03-06T17:16:32.579Z,10.99
2023-03-06T17:19:00.494Z,10.96
2023-03-06T17:21:28.537Z,10.68
2023-03-06T17:23:56.748Z,10.58
2023-03-06T17:26:25.635Z,10.20
2023-03-06T17:29:06.919Z,10.16
2023-03-06T17:31:44.214Z,10.20
2023-03-06T17:34:23.603Z,10.12
2023-03-06T17:37:09.337Z,10.21
2023-03-06T17:39:39.162Z,10.04
2023-03-06T17:42:07.346Z,10.14
2023-03-06T17:44:38.128Z,10.26
2023-03-06T17:47:06.079Z,9.78
2023-03-06T17:49:33.679Z,9.88
2023-03-06T17:52:01.299Z,9.66
2023-03-06T17:54:31.228Z,9.53
2023-03-06T17:57:00.269Z,9.72
2023-03-06T17:59:28.035Z,9.58
2023-03-06T18:01:57.666Z,9.35
2023-03-06T18:04:25.898Z,9.82
2023-03-06T18:06:53.649Z,9.90
2023-03-06T18:09:21.240Z,9.85
2023-03-06T18:11:48.839Z,9.58
2023-03-06T18:14:16.502Z,9.37
2023-03-06T18:16:44.203Z,9.69
2023-03-06T18:19:13.224Z,9.65
2023-03-06T18:21:40.815Z,9.27
2023-03-06T18:24:09.877Z,9.82
2023-03-06T18:26:37.428Z,9.93
2023-03-06T18:29:05.052Z,9.74
2023-03-06T18:31:35.078Z,9.78
2023-03-06T18:34:05.044Z,9.39
2023-03-06T18:36:34.788Z,9.55
2023-03-06T18:39:03.744Z,9.49
2023-03-06T18:41:31.771Z,9.34
2023-03-06T18:44:01.252Z,9.34
2023-03-06T18:46:31.204Z,9.36
2023-03-06T18:48:59.028Z,9.15
2023-03-06T18:51:27.526Z,9.09
2023-03-06T18:53:58.224Z,8.87
2023-03-06T18:56:26.207Z,9.19
2023-03-06T18:58:53.920Z,9.19
2023-03-06T19:01:21.849Z,9.08
2023-03-06T19:03:49.729Z,9.24
2023-03-06T19:06:18.152Z,9.38
2023-03-06T19:08:45.706Z,9.36
2023-03-06T19:11:16.887Z,8.95
2023-03-06T19:13:45.085Z,8.71
2023-03-06T19:16:17.953Z,8.58
2023-03-06T19:18:45.611Z,8.96
2023-03-06T19:21:15.926Z,8.78
2023-03-06T19:23:43.453Z,8.76
2023-03-06T19:26:12.335Z,8.91
2023-03-06T19:28:42.478Z,8.77
2023-03-06T19:31:11.977Z,8.03
2023-03-06T19:33:40.887Z,7.84
2023-03-06T19:36:12.043Z,7.93
2023-03-06T19:38:40.918Z,7.37
2023-03-06T19:41:11.900Z,7.31
2023-03-06T19:43:41.980Z,7.34
2023-03-06T19:46:12.282Z,7.34
2023-03-06T19:48:40.534Z,7.52
2023-03-06T19:51:08.951Z,7.33
2023-03-06T19:53:36.607Z,7.39
2023-03-06T19:56:05.601Z,7.08
2023-03-06T19:58:33.499Z,6.95
2023-03-06T20:01:08.213Z,6.79
2023-03-06T20:03:36.465Z,6.82
2023-03-06T20:06:04.646Z,7.27
2023-03-06T20:08:32.637Z,7.14
2023-03-06T20:11:00.217Z,7.34
2023-03-06T20:13:27.871Z,7.35
2023-03-06T20:15:56.083Z,7.33
2023-03-06T20:18:25.071Z,7.24
2023-03-06T20:21:00.322Z,7.22
2023-03-06T20:23:28.604Z,7.05
2023-03-06T20:25:56.522Z,7.39
2023-03-06T20:28:24.037Z,7.02
2023-03-06T20:30:51.744Z,7.31
2023-03-06T20:33:19.728Z,7.01
2023-03-06T20:35:48.689Z,7.07
2023-03-06T20:38:16.394Z,7.02
2023-03-06T20:40:44.135Z,7.19
2023-03-06T20:43:11.802Z,7.12
2023-03-06T20:45:39.330Z,6.92
2023-03-06T20:48:07.003Z,7.21
2023-03-06T20:50:34.571Z,7.15
2023-03-06T20:53:03.832Z,7.30
2023-03-06T20:55:31.512Z,6.80
2023-03-06T20:57:59.185Z,7.52
2023-03-06T21:00:26.849Z,7.43
2023-03-06T21:02:54.488Z,7.38
2023-03-06T21:05:22.233Z,7.30
2023-03-06T21:07:51.827Z,7.59
2023-03-06T21:10:20.885Z,7.45
2023-03-06T21:12:48.492Z,7.26
2023-03-06T21:15:16.284Z,7.26
2023-03-06T21:17:43.871Z,7.08
2023-03-06T21:20:11.873Z,7.34
2023-03-06T21:22:39.563Z,7.50
2023-03-06T21:25:07.572Z,7.57
2023-03-06T21:27:36.455Z,7.22
2023-03-06T21:30:05.310Z,7.42
2023-03-06T21:32:33.455Z,7.57
2023-03-06T21:35:01.084Z,7.70
2023-03-06T21:37:28.716Z,7.89
2023-03-06T21:39:59.021Z,8.08
2023-03-06T21:42:27.020Z,7.04
2023-03-06T21:44:55.937Z,7.67
2023-03-06T21:47:23.547Z,7.37
2023-03-06T21:49:51.107Z,7.50
2023-03-06T21:52:18.631Z,7.63
2023-03-06T21:54:48.622Z,7.36
2023-03-06T21:57:16.152Z,7.55
2023-03-06T21:59:43.761Z,7.29
2023-03-06T22:02:12.706Z,7.35
2023-03-06T22:04:40.263Z,7.46
2023-03-06T22:07:07.946Z,6.79
2023-03-06T22:09:35.898Z,6.19
2023-03-06T22:12:04.163Z,6.40
2023-03-06T22:14:31.829Z,6.73
2023-03-06T22:16:59.445Z,7.30
2023-03-06T22:19:28.460Z,6.85
2023-03-06T22:21:56.104Z,6.60
2023-03-06T22:24:23.736Z,6.85
2023-03-06T22:26:51.277Z,7.48
2023-03-06T22:29:18.870Z,6.84
2023-03-06T22:31:46.473Z,6.79
2023-03-06T22:34:14.000Z,6.63
2023-03-06T22:36:42.946Z,6.57
2023-03-06T22:39:12.989Z,6.98
2023-03-06T22:41:41.471Z,6.50
2023-03-06T22:44:15.896Z,6.23
2023-03-06T22:46:43.939Z,6.06
2023-03-06T22:49:13.069Z,5.91
2023-03-06T22:51:40.876Z,5.97
2023-03-06T22:54:10.984Z,6.65
2023-03-06T22:56:38.674Z,7.07
2023-03-06T22:59:06.264Z,6.86
2023-03-06T23:01:34.711Z,7.17
2023-03-06T23:04:04.411Z,7.59
2023-03-06T23:06:36.410Z,7.23
2023-03-06T23:09:06.475Z,7.28
2023-03-06T23:11:35.479Z,7.12
2023-03-06T23:14:03.206Z,7.13
2023-03-06T23:16:31.324Z,7.28
2023-03-06T23:18:58.998Z,6.76
2023-03-06T23:21:26.541Z,7.52
2023-03-06T23:23:54.752Z,7.59
2023-03-06T23:26:25.204Z,7.23
2023-03-06T23:28:55.050Z,7.33
2023-03-06T23:31:25.587Z,6.89
2023-03-06T23:33:53.128Z,7.63
2023-03-06T23:36:20.717Z,7.55
2023-03-06T23:38:48.362Z,7.32
2023-03-06T23:41:18.571Z,7.68
2023-03-06T23:43:47.500Z,7.68
2023-03-06T23:46:16.857Z,7.69
2023-03-06T23:48:44.741Z,7.87
2023-03-06T23:51:15.245Z,7.75
2023-03-06T23:53:44.027Z,7.89
2023-03-06T23:56:12.312Z,7.87
2023-03-06T23:58:40.158Z,7.02
